sensor_id;sensor_type;location;lat;lon;timestamp;P1;durP1;ratioP1;P2;durP2;ratioP2
17024;SDS011;8629;42.496;25.620;2023-02-03T00:00:43;4.63;;;3.63;;
17024;SDS011;8629;42.496;25.620;2023-02-03T00:03:10;6.10;;;4.77;;
17024;SDS011;8629;42.496;25.620;2023-02-03T00:05:37;2.77;;;2.23;;
17024;SDS011;8629;42.496;25.620;2023-02-03T00:08:06;1.23;;;1.13;;
17024;SDS011;8629;42.496;25.620;2023-02-03T00:10:34;1.27;;;1.17;;
17024;SDS011;8629;42.496;25.620;2023-02-03T00:13:02;1.33;;;1.23;;
17024;SDS011;8629;42.496;25.620;2023-02-03T00:15:29;1.83;;;1.60;;
17024;SDS011;8629;42.496;25.620;2023-02-03T00:17:56;2.03;;;1.80;;
17024;SDS011;8629;42.496;25.620;2023-02-03T00:20:23;2.93;;;1.30;;
17024;SDS011;8629;42.496;25.620;2023-02-03T00:22:51;1.50;;;1.33;;
17024;SDS011;8629;42.496;25.620;2023-02-03T00:25:20;1.53;;;1.43;;
17024;SDS011;8629;42.496;25.620;2023-02-03T00:27:47;1.67;;;1.23;;
17024;SDS011;8629;42.496;25.620;2023-02-03T00:30:14;1.30;;;1.20;;
17024;SDS011;8629;42.496;25.620;2023-02-03T00:32:41;0.90;;;0.90;;
17024;SDS011;8629;42.496;25.620;2023-02-03T00:35:08;2.07;;;1.47;;
17024;SDS011;8629;42.496;25.620;2023-02-03T00:37:36;4.77;;;2.23;;
17024;SDS011;8629;42.496;25.620;2023-02-03T00:40:03;3.93;;;2.20;;
17024;SDS011;8629;42.496;25.620;2023-02-03T00:42:32;4.07;;;2.40;;
17024;SDS011;8629;42.496;25.620;2023-02-03T00:44:59;3.70;;;2.13;;
17024;SDS011;8629;42.496;25.620;2023-02-03T00:47:26;2.83;;;2.20;;
17024;SDS011;8629;42.496;25.620;2023-02-03T00:49:53;4.93;;;3.50;;
17024;SDS011;8629;42.496;25.620;2023-02-03T00:52:21;4.47;;;3.13;;
17024;SDS011;8629;42.496;25.620;2023-02-03T00:54:47;8.13;;;4.57;;
17024;SDS011;8629;42.496;25.620;2023-02-03T00:57:14;9.90;;;5.20;;
17024;SDS011;8629;42.496;25.620;2023-02-03T00:59:43;6.60;;;5.73;;
17024;SDS011;8629;42.496;25.620;2023-02-03T01:02:10;18.33;;;12.30;;
17024;SDS011;8629;42.496;25.620;2023-02-03T01:04:37;21.13;;;14.50;;
17024;SDS011;8629;42.496;25.620;2023-02-03T01:07:04;6.90;;;5.70;;
17024;SDS011;8629;42.496;25.620;2023-02-03T01:09:32;3.77;;;3.00;;
17024;SDS011;8629;42.496;25.620;2023-02-03T01:11:59;2.27;;;1.90;;
17024;SDS011;8629;42.496;25.620;2023-02-03T01:14:26;1.70;;;1.53;;
17024;SDS011;8629;42.496;25.620;2023-02-03T01:16:54;3.00;;;2.63;;
17024;SDS011;8629;42.496;25.620;2023-02-03T01:19:21;5.63;;;4.20;;
17024;SDS011;8629;42.496;25.620;2023-02-03T01:21:50;4.33;;;2.50;;
17024;SDS011;8629;42.496;25.620;2023-02-03T01:24:17;2.90;;;1.97;;
17024;SDS011;8629;42.496;25.620;2023-02-03T01:26:44;4.03;;;1.67;;
17024;SDS011;8629;42.496;25.620;2023-02-03T01:29:11;2.43;;;1.93;;
17024;SDS011;8629;42.496;25.620;2023-02-03T01:31:39;3.87;;;2.50;;
17024;SDS011;8629;42.496;25.620;2023-02-03T01:34:10;1.97;;;1.63;;
17024;SDS011;8629;42.496;25.620;2023-02-03T01:36:38;1.77;;;1.60;;
17024;SDS011;8629;42.496;25.620;2023-02-03T01:39:04;1.77;;;1.60;;
17024;SDS011;8629;42.496;25.620;2023-02-03T01:41:33;1.20;;;1.10;;
17024;SDS011;8629;42.496;25.620;2023-02-03T01:47:02;1.57;;;1.20;;
17024;SDS011;8629;42.496;25.620;2023-02-03T01:49:32;4.00;;;1.80;;
17024;SDS011;8629;42.496;25.620;2023-02-03T01:52:00;4.53;;;1.93;;
17024;SDS011;8629;42.496;25.620;2023-02-03T01:54:28;2.03;;;1.57;;
17024;SDS011;8629;42.496;25.620;2023-02-03T01:56:58;1.00;;;1.00;;
17024;SDS011;8629;42.496;25.620;2023-02-03T01:59:27;1.07;;;0.93;;
17024;SDS011;8629;42.496;25.620;2023-02-03T02:01:55;1.10;;;1.00;;
17024;SDS011;8629;42.496;25.620;2023-02-03T02:04:22;1.47;;;1.37;;
17024;SDS011;8629;42.496;25.620;2023-02-03T02:06:53;0.90;;;0.90;;
17024;SDS011;8629;42.496;25.620;2023-02-03T02:09:21;1.83;;;1.30;;
17024;SDS011;8629;42.496;25.620;2023-02-03T02:11:49;2.83;;;1.03;;
17024;SDS011;8629;42.496;25.620;2023-02-03T02:14:16;1.47;;;1.37;;
17024;SDS011;8629;42.496;25.620;2023-02-03T02:16:44;1.00;;;1.00;;
17024;SDS011;8629;42.496;25.620;2023-02-03T02:19:22;1.50;;;1.20;;
17024;SDS011;8629;42.496;25.620;2023-02-03T02:22:02;3.07;;;1.30;;
17024;SDS011;8629;42.496;25.620;2023-02-03T02:30:47;1.07;;;1.07;;
17024;SDS011;8629;42.496;25.620;2023-02-03T02:33:26;4.80;;;1.60;;
17024;SDS011;8629;42.496;25.620;2023-02-03T02:36:00;1.07;;;1.00;;
17024;SDS011;8629;42.496;25.620;2023-02-03T02:38:36;1.90;;;1.20;;
17024;SDS011;8629;42.496;25.620;2023-02-03T02:41:08;0.83;;;0.83;;
17024;SDS011;8629;42.496;25.620;2023-02-03T02:43:39;1.57;;;1.20;;
17024;SDS011;8629;42.496;25.620;2023-02-03T02:46:09;1.40;;;1.30;;
17024;SDS011;8629;42.496;25.620;2023-02-03T02:48:41;1.30;;;1.23;;
17024;SDS011;8629;42.496;25.620;2023-02-03T02:51:11;0.80;;;0.80;;
17024;SDS011;8629;42.496;25.620;2023-02-03T02:53:41;1.00;;;0.90;;
17024;SDS011;8629;42.496;25.620;2023-02-03T02:56:11;2.30;;;1.70;;
17024;SDS011;8629;42.496;25.620;2023-02-03T02:58:39;1.67;;;1.57;;
17024;SDS011;8629;42.496;25.620;2023-02-03T03:01:08;0.93;;;0.90;;
17024;SDS011;8629;42.496;25.620;2023-02-03T03:03:35;1.00;;;1.00;;
17024;SDS011;8629;42.496;25.620;2023-02-03T03:06:07;1.20;;;1.10;;
17024;SDS011;8629;42.496;25.620;2023-02-03T03:08:40;1.53;;;1.20;;
17024;SDS011;8629;42.496;25.620;2023-02-03T03:11:10;1.27;;;1.20;;
17024;SDS011;8629;42.496;25.620;2023-02-03T03:13:38;0.97;;;0.97;;
17024;SDS011;8629;42.496;25.620;2023-02-03T03:16:08;1.10;;;1.10;;
17024;SDS011;8629;42.496;25.620;2023-02-03T03:18:36;2.03;;;1.40;;
17024;SDS011;8629;42.496;25.620;2023-02-03T03:21:09;1.10;;;1.10;;
17024;SDS011;8629;42.496;25.620;2023-02-03T03:23:39;1.50;;;1.40;;
17024;SDS011;8629;42.496;25.620;2023-02-03T03:26:09;1.53;;;1.40;;
17024;SDS011;8629;42.496;25.620;2023-02-03T03:28:40;2.43;;;1.90;;
17024;SDS011;8629;42.496;25.620;2023-02-03T03:31:09;2.50;;;1.57;;
17024;SDS011;8629;42.496;25.620;2023-02-03T03:33:36;3.53;;;1.00;;
17024;SDS011;8629;42.496;25.620;2023-02-03T03:36:04;1.23;;;1.20;;
17024;SDS011;8629;42.496;25.620;2023-02-03T03:38:38;1.03;;;1.03;;
17024;SDS011;8629;42.496;25.620;2023-02-03T03:41:07;1.10;;;1.10;;
17024;SDS011;8629;42.496;25.620;2023-02-03T03:43:40;1.40;;;1.30;;
17024;SDS011;8629;42.496;25.620;2023-02-03T03:46:10;1.20;;;1.10;;
17024;SDS011;8629;42.496;25.620;2023-02-03T03:48:39;2.13;;;1.10;;
17024;SDS011;8629;42.496;25.620;2023-02-03T03:51:14;1.43;;;1.20;;
17024;SDS011;8629;42.496;25.620;2023-02-03T03:53:42;3.47;;;1.40;;
17024;SDS011;8629;42.496;25.620;2023-02-03T03:56:10;1.10;;;1.10;;
17024;SDS011;8629;42.496;25.620;2023-02-03T03:58:41;1.47;;;1.37;;
17024;SDS011;8629;42.496;25.620;2023-02-03T04:01:10;2.37;;;1.30;;
17024;SDS011;8629;42.496;25.620;2023-02-03T04:03:39;1.23;;;1.20;;
17024;SDS011;8629;42.496;25.620;2023-02-03T04:06:10;1.07;;;1.07;;
17024;SDS011;8629;42.496;25.620;2023-02-03T04:08:39;1.00;;;0.93;;
17024;SDS011;8629;42.496;25.620;2023-02-03T04:11:06;1.23;;;1.13;;
17024;SDS011;8629;42.496;25.620;2023-02-03T04:13:33;0.90;;;0.90;;
17024;SDS011;8629;42.496;25.620;2023-02-03T04:16:01;2.17;;;1.37;;
17024;SDS011;8629;42.496;25.620;2023-02-03T04:18:28;1.90;;;1.43;;
17024;SDS011;8629;42.496;25.620;2023-02-03T04:20:56;1.33;;;1.30;;
17024;SDS011;8629;42.496;25.620;2023-02-03T04:23:23;1.53;;;1.40;;
17024;SDS011;8629;42.496;25.620;2023-02-03T04:25:52;2.40;;;1.83;;
17024;SDS011;8629;42.496;25.620;2023-02-03T04:28:19;1.87;;;1.53;;
17024;SDS011;8629;42.496;25.620;2023-02-03T04:30:47;2.03;;;1.10;;
17024;SDS011;8629;42.496;25.620;2023-02-03T04:33:17;2.13;;;1.53;;
17024;SDS011;8629;42.496;25.620;2023-02-03T04:35:44;1.80;;;1.70;;
17024;SDS011;8629;42.496;25.620;2023-02-03T04:38:11;3.83;;;2.67;;
17024;SDS011;8629;42.496;25.620;2023-02-03T04:40:38;2.30;;;1.17;;
17024;SDS011;8629;42.496;25.620;2023-02-03T04:43:08;2.20;;;1.20;;
17024;SDS011;8629;42.496;25.620;2023-02-03T04:45:35;1.10;;;1.10;;
17024;SDS011;8629;42.496;25.620;2023-02-03T04:48:02;1.53;;;1.43;;
17024;SDS011;8629;42.496;25.620;2023-02-03T04:50:30;4.10;;;1.50;;
17024;SDS011;8629;42.496;25.620;2023-02-03T04:52:57;1.43;;;1.33;;
17024;SDS011;8629;42.496;25.620;2023-02-03T04:55:25;1.47;;;1.37;;
17024;SDS011;8629;42.496;25.620;2023-02-03T04:57:53;1.27;;;1.17;;
17024;SDS011;8629;42.496;25.620;2023-02-03T05:00:22;1.33;;;1.23;;
17024;SDS011;8629;42.496;25.620;2023-02-03T05:02:49;1.47;;;1.33;;
17024;SDS011;8629;42.496;25.620;2023-02-03T05:05:16;1.00;;;1.00;;
17024;SDS011;8629;42.496;25.620;2023-02-03T05:07:43;1.90;;;1.30;;
17024;SDS011;8629;42.496;25.620;2023-02-03T05:10:10;2.47;;;1.20;;
17024;SDS011;8629;42.496;25.620;2023-02-03T05:12:37;1.50;;;1.40;;
17024;SDS011;8629;42.496;25.620;2023-02-03T05:15:05;1.30;;;1.20;;
17024;SDS011;8629;42.496;25.620;2023-02-03T05:17:34;1.20;;;1.10;;
17024;SDS011;8629;42.496;25.620;2023-02-03T05:20:04;1.20;;;1.20;;
17024;SDS011;8629;42.496;25.620;2023-02-03T05:22:32;1.20;;;1.07;;
17024;SDS011;8629;42.496;25.620;2023-02-03T05:24:59;1.73;;;1.63;;
17024;SDS011;8629;42.496;25.620;2023-02-03T05:27:26;4.50;;;1.80;;
17024;SDS011;8629;42.496;25.620;2023-02-03T05:29:53;4.10;;;3.57;;
17024;SDS011;8629;42.496;25.620;2023-02-03T05:32:20;2.60;;;2.40;;
17024;SDS011;8629;42.496;25.620;2023-02-03T05:34:49;3.00;;;2.30;;
17024;SDS011;8629;42.496;25.620;2023-02-03T05:37:17;2.93;;;2.60;;
17024;SDS011;8629;42.496;25.620;2023-02-03T05:39:47;3.17;;;2.07;;
17024;SDS011;8629;42.496;25.620;2023-02-03T05:42:14;1.53;;;1.43;;
17024;SDS011;8629;42.496;25.620;2023-02-03T05:44:40;1.60;;;1.50;;
17024;SDS011;8629;42.496;25.620;2023-02-03T05:47:07;1.63;;;1.53;;
17024;SDS011;8629;42.496;25.620;2023-02-03T05:49:34;1.80;;;1.70;;
17024;SDS011;8629;42.496;25.620;2023-02-03T05:52:03;2.10;;;1.90;;
17024;SDS011;8629;42.496;25.620;2023-02-03T05:54:29;4.70;;;2.20;;
17024;SDS011;8629;42.496;25.620;2023-02-03T05:56:56;2.83;;;1.93;;
17024;SDS011;8629;42.496;25.620;2023-02-03T05:59:23;3.07;;;2.07;;
17024;SDS011;8629;42.496;25.620;2023-02-03T06:01:50;9.10;;;7.03;;
17024;SDS011;8629;42.496;25.620;2023-02-03T06:04:16;4.80;;;3.73;;
17024;SDS011;8629;42.496;25.620;2023-02-03T06:06:44;4.97;;;2.97;;
17024;SDS011;8629;42.496;25.620;2023-02-03T06:09:13;5.90;;;2.83;;
17024;SDS011;8629;42.496;25.620;2023-02-03T06:11:39;5.07;;;3.53;;
17024;SDS011;8629;42.496;25.620;2023-02-03T06:14:09;4.87;;;2.37;;
17024;SDS011;8629;42.496;25.620;2023-02-03T06:16:36;2.83;;;2.07;;
17024;SDS011;8629;42.496;25.620;2023-02-03T06:19:03;2.00;;;1.80;;
17024;SDS011;8629;42.496;25.620;2023-02-03T06:21:30;3.07;;;2.07;;
17024;SDS011;8629;42.496;25.620;2023-02-03T06:23:57;2.53;;;2.33;;
17024;SDS011;8629;42.496;25.620;2023-02-03T06:26:25;3.13;;;2.53;;
17024;SDS011;8629;42.496;25.620;2023-02-03T06:28:55;1.97;;;1.87;;
17024;SDS011;8629;42.496;25.620;2023-02-03T06:31:21;2.50;;;2.20;;
17024;SDS011;8629;42.496;25.620;2023-02-03T06:33:48;3.77;;;3.00;;
17024;SDS011;8629;42.496;25.620;2023-02-03T06:36:15;4.53;;;2.87;;
17024;SDS011;8629;42.496;25.620;2023-02-03T06:38:42;3.33;;;2.70;;
17024;SDS011;8629;42.496;25.620;2023-02-03T06:41:08;3.33;;;2.57;;
17024;SDS011;8629;42.496;25.620;2023-02-03T06:43:37;3.23;;;2.63;;
17024;SDS011;8629;42.496;25.620;2023-02-03T06:46:03;4.30;;;3.27;;
17024;SDS011;8629;42.496;25.620;2023-02-03T06:48:30;2.43;;;2.23;;
17024;SDS011;8629;42.496;25.620;2023-02-03T06:50:58;2.70;;;2.50;;
17024;SDS011;8629;42.496;25.620;2023-02-03T06:53:25;3.57;;;2.63;;
17024;SDS011;8629;42.496;25.620;2023-02-03T06:55:52;4.17;;;2.50;;
17024;SDS011;8629;42.496;25.620;2023-02-03T06:58:19;3.13;;;2.80;;
17024;SDS011;8629;42.496;25.620;2023-02-03T07:00:47;2.97;;;2.23;;
17024;SDS011;8629;42.496;25.620;2023-02-03T07:03:15;3.97;;;3.17;;
17024;SDS011;8629;42.496;25.620;2023-02-03T07:05:42;4.63;;;2.77;;
17024;SDS011;8629;42.496;25.620;2023-02-03T07:08:08;2.73;;;2.47;;
17024;SDS011;8629;42.496;25.620;2023-02-03T07:10:35;1.93;;;1.83;;
17024;SDS011;8629;42.496;25.620;2023-02-03T07:13:02;4.57;;;3.13;;
17024;SDS011;8629;42.496;25.620;2023-02-03T07:15:29;2.90;;;2.40;;
17024;SDS011;8629;42.496;25.620;2023-02-03T07:17:57;4.57;;;3.17;;
17024;SDS011;8629;42.496;25.620;2023-02-03T07:20:24;3.27;;;2.47;;
17024;SDS011;8629;42.496;25.620;2023-02-03T07:22:53;4.70;;;2.97;;
17024;SDS011;8629;42.496;25.620;2023-02-03T07:25:21;2.90;;;2.60;;
17024;SDS011;8629;42.496;25.620;2023-02-03T07:27:48;2.30;;;2.07;;
17024;SDS011;8629;42.496;25.620;2023-02-03T07:30:15;4.73;;;3.67;;
17024;SDS011;8629;42.496;25.620;2023-02-03T07:32:45;6.50;;;2.70;;
17024;SDS011;8629;42.496;25.620;2023-02-03T07:35:14;3.03;;;2.70;;
17024;SDS011;8629;42.496;25.620;2023-02-03T07:37:42;3.03;;;2.83;;
17024;SDS011;8629;42.496;25.620;2023-02-03T07:40:10;2.40;;;2.30;;
17024;SDS011;8629;42.496;25.620;2023-02-03T07:42:37;2.67;;;2.47;;
17024;SDS011;8629;42.496;25.620;2023-02-03T07:45:11;2.77;;;2.10;;
17024;SDS011;8629;42.496;25.620;2023-02-03T07:47:38;3.27;;;2.30;;
17024;SDS011;8629;42.496;25.620;2023-02-03T07:50:06;6.97;;;2.70;;
17024;SDS011;8629;42.496;25.620;2023-02-03T07:52:34;2.57;;;2.37;;
17024;SDS011;8629;42.496;25.620;2023-02-03T07:55:01;2.63;;;2.43;;
17024;SDS011;8629;42.496;25.620;2023-02-03T07:57:28;2.60;;;2.17;;
17024;SDS011;8629;42.496;25.620;2023-02-03T07:59:55;4.60;;;2.30;;
17024;SDS011;8629;42.496;25.620;2023-02-03T08:02:22;2.77;;;2.57;;
17024;SDS011;8629;42.496;25.620;2023-02-03T08:04:49;2.43;;;2.23;;
17024;SDS011;8629;42.496;25.620;2023-02-03T08:07:16;3.13;;;2.83;;
17024;SDS011;8629;42.496;25.620;2023-02-03T08:09:44;2.03;;;1.93;;
17024;SDS011;8629;42.496;25.620;2023-02-03T08:12:11;4.43;;;3.80;;
17024;SDS011;8629;42.496;25.620;2023-02-03T08:14:37;3.30;;;2.97;;
17024;SDS011;8629;42.496;25.620;2023-02-03T08:17:04;2.87;;;2.30;;
17024;SDS011;8629;42.496;25.620;2023-02-03T08:19:31;4.40;;;2.40;;
17024;SDS011;8629;42.496;25.620;2023-02-03T08:21:58;3.37;;;3.07;;
17024;SDS011;8629;42.496;25.620;2023-02-03T08:24:24;3.47;;;2.07;;
17024;SDS011;8629;42.496;25.620;2023-02-03T08:26:52;2.63;;;1.87;;
17024;SDS011;8629;42.496;25.620;2023-02-03T08:29:19;1.80;;;1.53;;
17024;SDS011;8629;42.496;25.620;2023-02-03T08:31:46;2.67;;;1.70;;
17024;SDS011;8629;42.496;25.620;2023-02-03T08:34:13;4.97;;;3.50;;
17024;SDS011;8629;42.496;25.620;2023-02-03T08:36:40;3.43;;;3.13;;
17024;SDS011;8629;42.496;25.620;2023-02-03T08:39:08;3.03;;;2.17;;
17024;SDS011;8629;42.496;25.620;2023-02-03T08:41:35;3.27;;;2.80;;
17024;SDS011;8629;42.496;25.620;2023-02-03T08:44:03;2.63;;;2.20;;
17024;SDS011;8629;42.496;25.620;2023-02-03T08:46:30;2.53;;;2.30;;
17024;SDS011;8629;42.496;25.620;2023-02-03T08:48:57;1.70;;;1.60;;
17024;SDS011;8629;42.496;25.620;2023-02-03T08:51:26;2.43;;;2.23;;
17024;SDS011;8629;42.496;25.620;2023-02-03T08:53:54;4.17;;;2.07;;
17024;SDS011;8629;42.496;25.620;2023-02-03T08:56:20;2.87;;;2.57;;
17024;SDS011;8629;42.496;25.620;2023-02-03T08:58:49;3.03;;;2.67;;
17024;SDS011;8629;42.496;25.620;2023-02-03T09:01:17;2.47;;;2.27;;
17024;SDS011;8629;42.496;25.620;2023-02-03T09:03:44;3.00;;;2.80;;
17024;SDS011;8629;42.496;25.620;2023-02-03T09:06:10;1.97;;;1.87;;
17024;SDS011;8629;42.496;25.620;2023-02-03T09:08:40;4.57;;;3.97;;
17024;SDS011;8629;42.496;25.620;2023-02-03T09:11:08;3.43;;;3.13;;
17024;SDS011;8629;42.496;25.620;2023-02-03T09:13:35;2.53;;;2.00;;
17024;SDS011;8629;42.496;25.620;2023-02-03T09:16:03;3.63;;;2.67;;
17024;SDS011;8629;42.496;25.620;2023-02-03T09:18:32;2.77;;;2.20;;
17024;SDS011;8629;42.496;25.620;2023-02-03T09:20:59;2.47;;;2.23;;
17024;SDS011;8629;42.496;25.620;2023-02-03T09:23:26;1.83;;;1.73;;
17024;SDS011;8629;42.496;25.620;2023-02-03T09:25:53;3.20;;;2.97;;
17024;SDS011;8629;42.496;25.620;2023-02-03T09:28:20;3.73;;;3.00;;
17024;SDS011;8629;42.496;25.620;2023-02-03T09:30:47;2.33;;;1.63;;
17024;SDS011;8629;42.496;25.620;2023-02-03T09:33:14;2.67;;;2.47;;
17024;SDS011;8629;42.496;25.620;2023-02-03T09:35:42;4.67;;;2.10;;
17024;SDS011;8629;42.496;25.620;2023-02-03T09:38:17;1.53;;;1.43;;
17024;SDS011;8629;42.496;25.620;2023-02-03T09:40:44;1.73;;;1.63;;
17024;SDS011;8629;42.496;25.620;2023-02-03T09:43:15;1.67;;;1.57;;
17024;SDS011;8629;42.496;25.620;2023-02-03T09:45:48;2.23;;;1.90;;
17024;SDS011;8629;42.496;25.620;2023-02-03T09:48:17;2.37;;;2.07;;
17024;SDS011;8629;42.496;25.620;2023-02-03T09:50:50;1.80;;;1.70;;
17024;SDS011;8629;42.496;25.620;2023-02-03T09:53:20;2.10;;;1.90;;
17024;SDS011;8629;42.496;25.620;2023-02-03T09:55:51;2.33;;;2.13;;
17024;SDS011;8629;42.496;25.620;2023-02-03T09:58:18;2.27;;;2.07;;
17024;SDS011;8629;42.496;25.620;2023-02-03T10:00:47;1.60;;;1.53;;
17024;SDS011;8629;42.496;25.620;2023-02-03T10:03:19;3.10;;;2.40;;
17024;SDS011;8629;42.496;25.620;2023-02-03T10:08:54;2.97;;;2.67;;
17024;SDS011;8629;42.496;25.620;2023-02-03T10:11:45;2.00;;;1.90;;
17024;SDS011;8629;42.496;25.620;2023-02-03T10:14:23;3.23;;;2.20;;
17024;SDS011;8629;42.496;25.620;2023-02-03T10:17:06;1.67;;;1.57;;
17024;SDS011;8629;42.496;25.620;2023-02-03T10:19:41;1.97;;;1.87;;
17024;SDS011;8629;42.496;25.620;2023-02-03T10:22:12;2.17;;;1.90;;
17024;SDS011;8629;42.496;25.620;2023-02-03T10:24:42;2.53;;;2.20;;
17024;SDS011;8629;42.496;25.620;2023-02-03T10:27:14;1.80;;;1.70;;
17024;SDS011;8629;42.496;25.620;2023-02-03T10:29:42;2.00;;;1.90;;
17024;SDS011;8629;42.496;25.620;2023-02-03T10:32:09;2.07;;;1.90;;
17024;SDS011;8629;42.496;25.620;2023-02-03T10:34:36;1.90;;;1.80;;
17024;SDS011;8629;42.496;25.620;2023-02-03T10:37:05;2.13;;;2.03;;
17024;SDS011;8629;42.496;25.620;2023-02-03T10:39:40;3.50;;;2.20;;
17024;SDS011;8629;42.496;25.620;2023-02-03T10:42:10;4.27;;;3.43;;
17024;SDS011;8629;42.496;25.620;2023-02-03T10:44:38;4.60;;;3.27;;
17024;SDS011;8629;42.496;25.620;2023-02-03T10:47:14;7.67;;;5.10;;
17024;SDS011;8629;42.496;25.620;2023-02-03T10:49:46;3.07;;;2.40;;
17024;SDS011;8629;42.496;25.620;2023-02-03T10:52:23;2.80;;;2.50;;
17024;SDS011;8629;42.496;25.620;2023-02-03T10:54:53;6.57;;;4.57;;
17024;SDS011;8629;42.496;25.620;2023-02-03T10:57:20;1.63;;;1.53;;
17024;SDS011;8629;42.496;25.620;2023-02-03T10:59:47;3.17;;;2.90;;
17024;SDS011;8629;42.496;25.620;2023-02-03T11:02:24;2.50;;;2.30;;
17024;SDS011;8629;42.496;25.620;2023-02-03T11:05:17;2.10;;;2.00;;
17024;SDS011;8629;42.496;25.620;2023-02-03T11:07:46;3.27;;;2.33;;
17024;SDS011;8629;42.496;25.620;2023-02-03T11:10:31;1.13;;;1.13;;
17024;SDS011;8629;42.496;25.620;2023-02-03T11:13:11;1.90;;;1.80;;
17024;SDS011;8629;42.496;25.620;2023-02-03T11:18:34;2.30;;;2.10;;
17024;SDS011;8629;42.496;25.620;2023-02-03T11:21:06;2.10;;;1.80;;
17024;SDS011;8629;42.496;25.620;2023-02-03T11:23:34;2.17;;;2.03;;
17024;SDS011;8629;42.496;25.620;2023-02-03T11:26:10;2.07;;;1.77;;
17024;SDS011;8629;42.496;25.620;2023-02-03T11:28:40;1.80;;;1.70;;
17024;SDS011;8629;42.496;25.620;2023-02-03T11:31:16;1.80;;;1.70;;
17024;SDS011;8629;42.496;25.620;2023-02-03T11:33:47;2.87;;;2.67;;
17024;SDS011;8629;42.496;25.620;2023-02-03T11:36:16;18.67;;;11.70;;
17024;SDS011;8629;42.496;25.620;2023-02-03T11:38:44;3.83;;;3.43;;
17024;SDS011;8629;42.496;25.620;2023-02-03T11:41:18;2.50;;;2.30;;
17024;SDS011;8629;42.496;25.620;2023-02-03T11:43:46;2.77;;;2.57;;
17024;SDS011;8629;42.496;25.620;2023-02-03T11:46:13;3.33;;;3.00;;
17024;SDS011;8629;42.496;25.620;2023-02-03T11:48:43;5.67;;;4.27;;
17024;SDS011;8629;42.496;25.620;2023-02-03T11:51:17;3.90;;;3.20;;
17024;SDS011;8629;42.496;25.620;2023-02-03T11:54:05;4.70;;;3.40;;
17024;SDS011;8629;42.496;25.620;2023-02-03T11:56:49;3.97;;;3.03;;
17024;SDS011;8629;42.496;25.620;2023-02-03T11:59:33;4.10;;;3.10;;
17024;SDS011;8629;42.496;25.620;2023-02-03T12:02:30;3.77;;;2.93;;
17024;SDS011;8629;42.496;25.620;2023-02-03T12:05:17;2.60;;;2.30;;
17024;SDS011;8629;42.496;25.620;2023-02-03T12:07:54;2.10;;;1.90;;
17024;SDS011;8629;42.496;25.620;2023-02-03T12:10:33;2.47;;;2.27;;
17024;SDS011;8629;42.496;25.620;2023-02-03T12:13:10;2.17;;;2.07;;
17024;SDS011;8629;42.496;25.620;2023-02-03T12:15:49;4.53;;;2.67;;
17024;SDS011;8629;42.496;25.620;2023-02-03T12:18:30;1.90;;;1.70;;
17024;SDS011;8629;42.496;25.620;2023-02-03T12:21:06;6.17;;;3.00;;
17024;SDS011;8629;42.496;25.620;2023-02-03T12:23:42;2.60;;;2.30;;
17024;SDS011;8629;42.496;25.620;2023-02-03T12:26:15;2.43;;;2.20;;
17024;SDS011;8629;42.496;25.620;2023-02-03T12:28:47;3.47;;;2.60;;
17024;SDS011;8629;42.496;25.620;2023-02-03T12:31:20;1.67;;;1.57;;
17024;SDS011;8629;42.496;25.620;2023-02-03T12:33:55;4.43;;;3.53;;
17024;SDS011;8629;42.496;25.620;2023-02-03T12:36:27;10.50;;;5.90;;
17024;SDS011;8629;42.496;25.620;2023-02-03T12:38:57;14.33;;;8.70;;
17024;SDS011;8629;42.496;25.620;2023-02-03T12:41:27;6.47;;;5.00;;
17024;SDS011;8629;42.496;25.620;2023-02-03T12:43:59;2.23;;;2.00;;
17024;SDS011;8629;42.496;25.620;2023-02-03T12:46:30;2.77;;;2.17;;
17024;SDS011;8629;42.496;25.620;2023-02-03T12:49:02;2.90;;;2.23;;
17024;SDS011;8629;42.496;25.620;2023-02-03T12:51:36;2.00;;;1.80;;
17024;SDS011;8629;42.496;25.620;2023-02-03T12:54:06;2.20;;;2.00;;
17024;SDS011;8629;42.496;25.620;2023-02-03T12:56:40;1.50;;;1.40;;
17024;SDS011;8629;42.496;25.620;2023-02-03T12:59:12;1.80;;;1.70;;
17024;SDS011;8629;42.496;25.620;2023-02-03T13:01:41;1.60;;;1.50;;
17024;SDS011;8629;42.496;25.620;2023-02-03T13:04:13;1.90;;;1.80;;
17024;SDS011;8629;42.496;25.620;2023-02-03T13:06:43;1.50;;;1.40;;
17024;SDS011;8629;42.496;25.620;2023-02-03T13:09:21;1.53;;;1.43;;
17024;SDS011;8629;42.496;25.620;2023-02-03T13:11:53;1.83;;;1.70;;
17024;SDS011;8629;42.496;25.620;2023-02-03T13:14:26;1.40;;;1.30;;
17024;SDS011;8629;42.496;25.620;2023-02-03T13:16:56;2.37;;;2.13;;
17024;SDS011;8629;42.496;25.620;2023-02-03T13:19:25;1.90;;;1.77;;
17024;SDS011;8629;42.496;25.620;2023-02-03T13:21:54;1.50;;;1.40;;
17024;SDS011;8629;42.496;25.620;2023-02-03T13:24:21;1.87;;;1.73;;
17024;SDS011;8629;42.496;25.620;2023-02-03T13:26:56;1.70;;;1.60;;
17024;SDS011;8629;42.496;25.620;2023-02-03T13:29:41;1.87;;;1.67;;
17024;SDS011;8629;42.496;25.620;2023-02-03T13:32:20;2.13;;;1.87;;
17024;SDS011;8629;42.496;25.620;2023-02-03T13:35:02;1.57;;;1.47;;
17024;SDS011;8629;42.496;25.620;2023-02-03T13:37:41;4.37;;;2.30;;
17024;SDS011;8629;42.496;25.620;2023-02-03T13:40:21;2.60;;;2.30;;
17024;SDS011;8629;42.496;25.620;2023-02-03T13:42:57;4.20;;;2.40;;
17024;SDS011;8629;42.496;25.620;2023-02-03T13:45:26;2.93;;;2.60;;
17024;SDS011;8629;42.496;25.620;2023-02-03T13:47:56;1.70;;;1.60;;
17024;SDS011;8629;42.496;25.620;2023-02-03T13:50:27;3.50;;;2.40;;
17024;SDS011;8629;42.496;25.620;2023-02-03T13:52:56;2.67;;;2.47;;
17024;SDS011;8629;42.496;25.620;2023-02-03T13:55:29;4.73;;;3.10;;
17024;SDS011;8629;42.496;25.620;2023-02-03T13:57:59;2.80;;;2.60;;
17024;SDS011;8629;42.496;25.620;2023-02-03T14:03:48;8.07;;;4.63;;
17024;SDS011;8629;42.496;25.620;2023-02-03T14:09:21;4.50;;;3.60;;
17024;SDS011;8629;42.496;25.620;2023-02-03T14:11:49;6.17;;;4.63;;
17024;SDS011;8629;42.496;25.620;2023-02-03T14:23:36;2.70;;;2.50;;
17024;SDS011;8629;42.496;25.620;2023-02-03T14:26:19;2.20;;;2.00;;
17024;SDS011;8629;42.496;25.620;2023-02-03T14:28:47;3.03;;;1.90;;
17024;SDS011;8629;42.496;25.620;2023-02-03T14:31:18;5.40;;;4.30;;
17024;SDS011;8629;42.496;25.620;2023-02-03T14:33:53;3.73;;;3.27;;
17024;SDS011;8629;42.496;25.620;2023-02-03T14:36:40;3.37;;;2.80;;
17024;SDS011;8629;42.496;25.620;2023-02-03T14:39:26;3.97;;;3.00;;
17024;SDS011;8629;42.496;25.620;2023-02-03T14:42:29;4.20;;;2.80;;
17024;SDS011;8629;42.496;25.620;2023-02-03T14:45:07;3.87;;;1.90;;
17024;SDS011;8629;42.496;25.620;2023-02-03T14:47:44;2.50;;;2.30;;
17024;SDS011;8629;42.496;25.620;2023-02-03T14:50:19;2.90;;;2.70;;
17024;SDS011;8629;42.496;25.620;2023-02-03T14:55:51;8.10;;;4.67;;
17024;SDS011;8629;42.496;25.620;2023-02-03T14:58:25;4.77;;;3.30;;
17024;SDS011;8629;42.496;25.620;2023-02-03T15:00:54;4.47;;;3.63;;
17024;SDS011;8629;42.496;25.620;2023-02-03T15:03:23;3.13;;;2.63;;
17024;SDS011;8629;42.496;25.620;2023-02-03T15:05:52;3.13;;;2.83;;
17024;SDS011;8629;42.496;25.620;2023-02-03T15:08:30;3.00;;;2.30;;
17024;SDS011;8629;42.496;25.620;2023-02-03T15:11:30;2.87;;;2.27;;
17024;SDS011;8629;42.496;25.620;2023-02-03T15:14:16;3.10;;;2.80;;
17024;SDS011;8629;42.496;25.620;2023-02-03T15:16:45;5.57;;;5.07;;
17024;SDS011;8629;42.496;25.620;2023-02-03T15:19:14;11.43;;;10.07;;
17024;SDS011;8629;42.496;25.620;2023-02-03T15:21:42;19.47;;;13.87;;
17024;SDS011;8629;42.496;25.620;2023-02-03T15:24:14;26.60;;;19.30;;
17024;SDS011;8629;42.496;25.620;2023-02-03T15:26:48;20.47;;;17.13;;
17024;SDS011;8629;42.496;25.620;2023-02-03T15:29:18;9.77;;;7.20;;
17024;SDS011;8629;42.496;25.620;2023-02-03T15:31:49;8.17;;;6.80;;
17024;SDS011;8629;42.496;25.620;2023-02-03T15:34:21;7.93;;;6.83;;
17024;SDS011;8629;42.496;25.620;2023-02-03T15:36:51;9.97;;;7.40;;
17024;SDS011;8629;42.496;25.620;2023-02-03T15:39:21;9.47;;;6.03;;